Time;durP1;ratioP1;P1;durP2;ratioP2;P2;SDS_P1;SDS_P2;PMS_P1;PMS_P2;Temp;Humidity;BMP_temperature;BMP_pressure;BME280_temperature;BME280_humidity;BME280_pressure;Samples;Min_cycle;Max_cycle;Signal;HPM_P1;HPM_P2
2022/05/12 00:00:36;;;;;;;4.47;1.00;;;8.60;92.90;;;;;;5024691;28;20036;-58
2022/05/12 00:03:04;;;;;;;3.85;1.02;;;8.50;92.60;;;;;;5013991;28;20017;-58
2022/05/12 00:05:30;;;;;;;6.82;1.48;;;8.50;93.30;;;;;;5009894;28;20041;-58
2022/05/12 00:07:55;;;;;;;8.25;1.55;;;8.50;93.40;;;;;;5011339;28;20029;-57
2022/05/12 00:10:24;;;;;;;9.52;1.40;;;8.40;93.30;;;;;;4999865;28;20025;-58
2022/05/12 00:12:51;;;;;;;5.63;1.40;;;8.40;93.20;;;;;;5024523;28;20026;-59
2022/05/12 00:15:23;;;;;;;5.25;1.13;;;8.50;93.40;;;;;;5012839;28;20041;-59
2022/05/12 00:17:49;;;;;;;8.55;1.50;;;8.50;93.10;;;;;;5017728;28;20029;-59
2022/05/12 00:20:19;;;;;;;4.65;1.33;;;8.40;93.20;;;;;;5013654;28;20025;-58
2022/05/12 00:22:45;;;;;;;3.78;1.42;;;8.40;93.50;;;;;;5016827;28;20120;-61
2022/05/12 00:25:20;;;;;;;5.50;2.13;;;8.30;93.60;;;;;;5019224;28;20587;-57
2022/05/12 00:27:46;;;;;;;5.22;1.08;;;8.40;94.20;;;;;;5019433;28;20477;-58
2022/05/12 00:30:13;;;;;;;5.45;0.80;;;8.40;93.90;;;;;;5019538;28;20048;-58
2022/05/12 00:32:42;;;;;;;5.40;1.33;;;8.40;93.80;;;;;;5017613;28;20069;-59
2022/05/12 00:35:10;;;;;;;3.63;1.00;;;8.30;93.80;;;;;;5019630;28;20053;-59
2022/05/12 00:37:36;;;;;;;7.25;1.13;;;8.30;93.80;;;;;;5011313;28;20026;-59
2022/05/12 00:40:03;;;;;;;10.35;1.80;;;8.20;93.90;;;;;;4998767;28;20121;-59
2022/05/12 00:42:28;;;;;;;7.97;1.40;;;8.20;94.10;;;;;;5025486;28;20034;-58
2022/05/12 00:44:54;;;;;;;9.52;1.70;;;8.20;94.30;;;;;;5021068;28;20018;-59
2022/05/12 00:47:20;;;;;;;10.00;2.35;;;8.20;94.30;;;;;;5024758;28;20033;-57
2022/05/12 00:49:49;;;;;;;3.58;1.42;;;8.40;94.70;;;;;;5018336;28;20384;-58
2022/05/12 00:52:20;;;;;;;11.10;2.45;;;8.60;94.40;;;;;;5018898;28;20030;-58
2022/05/12 00:54:45;;;;;;;6.45;1.30;;;8.70;93.90;;;;;;5025092;28;20025;-58
2022/05/12 00:57:16;;;;;;;6.72;1.98;;;8.70;93.30;;;;;;5014357;28;20063;-57
2022/05/12 00:59:42;;;;;;;3.22;1.30;;;8.70;93.70;;;;;;5018116;28;20033;-59
2022/05/12 01:02:14;;;;;;;5.80;1.52;;;8.60;93.90;;;;;;5019477;28;20436;-57
2022/05/12 01:04:42;;;;;;;5.18;1.20;;;8.50;94.00;;;;;;5024260;28;20075;-58
2022/05/12 01:07:08;;;;;;;13.43;1.67;;;8.60;94.40;;;;;;5018348;28;20022;-57
2022/05/12 01:09:34;;;;;;;9.35;1.65;;;8.60;94.50;;;;;;5013582;28;20025;-57
2022/05/12 01:12:01;;;;;;;5.20;1.23;;;8.60;94.30;;;;;;5018706;28;20048;-57
2022/05/12 01:14:27;;;;;;;4.93;1.77;;;8.70;94.30;;;;;;5025883;28;20022;-58
2022/05/12 01:16:58;;;;;;;5.32;1.40;;;8.70;94.00;;;;;;5010428;28;20378;-58
2022/05/12 01:19:31;;;;;;;5.93;1.50;;;8.70;93.90;;;;;;5021091;28;20030;-57
2022/05/12 01:21:58;;;;;;;9.55;1.70;;;8.70;94.30;;;;;;5026498;28;20034;-57
2022/05/12 01:24:31;;;;;;;10.52;1.75;;;8.80;94.40;;;;;;5012126;28;20442;-57
2022/05/12 01:26:56;;;;;;;5.30;1.42;;;9.00;93.90;;;;;;5021468;28;20057;-58
2022/05/12 01:29:22;;;;;;;5.30;1.20;;;9.10;93.50;;;;;;4999867;28;20061;-58
2022/05/12 01:31:48;;;;;;;9.82;1.48;;;9.10;93.10;;;;;;5016762;28;20025;-57
2022/05/12 01:34:14;;;;;;;7.30;1.40;;;9.20;92.90;;;;;;5010460;28;20479;-58
2022/05/12 01:36:40;;;;;;;6.05;1.27;;;9.20;92.80;;;;;;5017613;28;20037;-57
2022/05/12 01:39:08;;;;;;;8.07;1.40;;;9.30;92.70;;;;;;5016240;28;20026;-57
2022/05/12 01:41:33;;;;;;;12.48;2.17;;;9.30;92.60;;;;;;5015676;28;20025;-58
2022/05/12 01:44:01;;;;;;;6.15;1.60;;;9.30;92.50;;;;;;5018073;28;20056;-58
2022/05/12 01:46:27;;;;;;;5.70;1.02;;;9.40;92.50;;;;;;5024012;28;20475;-58
2022/05/12 01:48:53;;;;;;;13.60;2.08;;;9.40;92.30;;;;;;5007350;28;20128;-58
2022/05/12 01:51:19;;;;;;;12.80;1.88;;;9.00;92.00;;;;;;5018321;28;20501;-57
2022/05/12 01:53:45;;;;;;;8.38;1.40;;;9.30;92.50;;;;;;5015357;28;20030;-58
2022/05/12 01:56:11;;;;;;;7.05;2.15;;;9.30;92.50;;;;;;5016026;28;20048;-59
2022/05/12 01:58:38;;;;;;;7.95;1.80;;;9.20;92.70;;;;;;5014744;28;20053;-58
2022/05/12 02:01:04;;;;;;;9.73;2.70;;;9.20;92.80;;;;;;5004627;28;20038;-57
2022/05/12 02:03:30;;;;;;;8.30;1.48;;;9.20;92.80;;;;;;5019292;28;20030;-58
2022/05/12 02:05:56;;;;;;;7.95;1.33;;;8.90;92.80;;;;;;5015772;28;20076;-58
2022/05/12 02:08:21;;;;;;;8.50;1.92;;;8.80;93.30;;;;;;5015196;28;20486;-58
2022/05/12 02:10:49;;;;;;;5.70;1.48;;;8.70;94.00;;;;;;5020185;28;20022;-58
2022/05/12 02:13:17;;;;;;;10.27;1.65;;;8.80;94.30;;;;;;5017355;28;20029;-58
2022/05/12 02:15:44;;;;;;;8.55;2.28;;;8.90;93.90;;;;;;5022266;28;20095;-58
2022/05/12 02:18:10;;;;;;;10.75;2.10;;;9.00;93.70;;;;;;5017843;28;20402;-58
2022/05/12 02:20:36;;;;;;;4.97;1.42;;;9.00;93.80;;;;;;5007955;28;20069;-58
2022/05/12 02:23:02;;;;;;;6.88;1.48;;;8.90;93.50;;;;;;5018071;28;20050;-58
2022/05/12 02:25:27;;;;;;;5.55;1.50;;;8.70;93.30;;;;;;5021951;28;20120;-58
2022/05/12 02:27:55;;;;;;;6.90;1.23;;;8.60;93.60;;;;;;5019979;28;20404;-59
2022/05/12 02:30:27;;;;;;;6.13;1.90;;;8.50;93.80;;;;;;5004088;28;20057;-59
2022/05/12 02:32:53;;;;;;;7.40;1.95;;;8.30;94.10;;;;;;5011388;28;20022;-59
2022/05/12 02:35:19;;;;;;;7.70;1.33;;;8.20;94.30;;;;;;5016402;28;20121;-58
2022/05/12 02:37:46;;;;;;;11.57;1.63;;;8.20;94.80;;;;;;5023895;28;20044;-62
2022/05/12 02:40:15;;;;;;;4.55;1.70;;;8.10;95.00;;;;;;5001551;28;20093;-58
2022/05/12 02:42:41;;;;;;;5.88;1.55;;;8.00;95.20;;;;;;5014842;28;20041;-58
2022/05/12 02:45:07;;;;;;;7.57;1.75;;;7.90;95.30;;;;;;5020171;28;20034;-58
2022/05/12 02:47:34;;;;;;;3.10;1.40;;;7.80;95.50;;;;;;5026129;28;20033;-57
2022/05/12 02:50:00;;;;;;;8.15;1.30;;;7.80;95.80;;;;;;5012483;28;20065;-58
2022/05/12 02:52:25;;;;;;;9.35;1.42;;;7.80;95.70;;;;;;5000699;28;20037;-59
2022/05/12 02:54:51;;;;;;;4.40;1.58;;;7.80;95.50;;;;;;5014897;28;20041;-58
2022/05/12 02:57:18;;;;;;;4.10;1.30;;;7.60;95.40;;;;;;5019665;28;20477;-58
2022/05/12 02:59:43;;;;;;;5.28;1.55;;;7.60;95.60;;;;;;5017338;28;20044;-59
2022/05/12 03:02:09;;;;;;;5.18;1.10;;;7.60;95.70;;;;;;5021671;28;20029;-59
2022/05/12 03:04:35;;;;;;;11.30;1.45;;;7.60;95.20;;;;;;5025158;28;20030;-59
2022/05/12 03:07:01;;;;;;;4.10;1.27;;;7.50;95.50;;;;;;5019925;28;20030;-58
2022/05/12 03:09:28;;;;;;;8.75;2.03;;;7.50;95.50;;;;;;5026182;28;20029;-58
2022/05/12 03:11:54;;;;;;;8.88;1.50;;;7.40;95.40;;;;;;5020751;28;20029;-58
2022/05/12 03:14:19;;;;;;;9.52;1.60;;;7.40;95.40;;;;;;5021583;28;20485;-58
2022/05/12 03:16:45;;;;;;;3.72;1.45;;;7.40;95.70;;;;;;5018120;28;20062;-58
2022/05/12 03:19:11;;;;;;;4.95;1.33;;;7.40;95.90;;;;;;5021593;28;20056;-58
2022/05/12 03:21:37;;;;;;;11.43;1.70;;;7.40;96.30;;;;;;5017976;28;20038;-58
2022/05/12 03:24:04;;;;;;;7.18;2.30;;;7.50;96.20;;;;;;5024804;28;20449;-58
2022/05/12 03:26:30;;;;;;;6.30;1.67;;;7.40;95.90;;;;;;5008784;28;20490;-58
2022/05/12 03:28:56;;;;;;;3.38;1.27;;;7.30;95.80;;;;;;5004900;28;20022;-58
2022/05/12 03:31:22;;;;;;;9.25;2.30;;;7.30;95.90;;;;;;5026620;28;20444;-58
2022/05/12 03:33:48;;;;;;;5.93;1.08;;;7.20;95.70;;;;;;5018005;28;20536;-58
2022/05/12 03:36:16;;;;;;;6.20;1.50;;;7.20;95.60;;;;;;5025172;28;20037;-58
2022/05/12 03:38:43;;;;;;;6.60;1.50;;;7.10;95.40;;;;;;5011267;28;20022;-58
2022/05/12 03:41:08;;;;;;;5.72;1.40;;;7.10;95.30;;;;;;5019955;28;20029;-57
2022/05/12 03:46:19;;;;;;;10.90;1.33;;;7.10;95.70;;;;;;5026308;28;20392;-58
2022/05/12 03:48:45;;;;;;;12.85;2.20;;;7.00;96.10;;;;;;5014927;28;20018;-58
2022/05/12 03:51:12;;;;;;;5.22;1.75;;;7.00;96.30;;;;;;5020545;28;20182;-58
2022/05/12 03:53:38;;;;;;;6.72;1.27;;;7.10;96.70;;;;;;5015837;28;20189;-58
2022/05/12 03:56:05;;;;;;;9.55;1.73;;;7.10;96.70;;;;;;5020222;28;20484;-59
2022/05/12 03:58:31;;;;;;;7.53;1.30;;;7.10;96.40;;;;;;5002225;28;20026;-58
2022/05/12 04:00:59;;;;;;;9.35;2.03;;;7.10;96.10;;;;;;5021744;28;20108;-58
2022/05/12 04:03:24;;;;;;;4.65;1.10;;;7.10;96.10;;;;;;4994850;28;20482;-58
2022/05/12 04:05:50;;;;;;;6.97;1.90;;;7.10;96.40;;;;;;5021779;28;20025;-57
2022/05/12 04:08:16;;;;;;;5.63;1.30;;;7.00;96.30;;;;;;5003784;28;20026;-58
2022/05/12 04:10:41;;;;;;;7.93;2.05;;;7.10;96.20;;;;;;5019672;28;20392;-58
2022/05/12 04:13:07;;;;;;;2.75;1.30;;;7.00;95.90;;;;;;5016836;28;20029;-58
2022/05/12 04:15:33;;;;;;;4.78;2.03;;;6.90;95.80;;;;;;5023985;28;20493;-58
2022/05/12 04:18:06;;;;;;;3.88;1.67;;;6.80;96.20;;;;;;5009210;28;20044;-58
2022/05/12 04:20:34;;;;;;;5.18;1.55;;;6.80;96.30;;;;;;5016451;28;20057;-59
2022/05/12 04:23:00;;;;;;;5.88;1.42;;;6.90;96.60;;;;;;5018932;28;20025;-58
2022/05/12 04:25:26;;;;;;;8.52;1.60;;;7.10;96.50;;;;;;5019425;28;20030;-58
2022/05/12 04:27:52;;;;;;;5.60;1.20;;;6.90;96.30;;;;;;5014388;28;20109;-58
2022/05/12 04:30:22;;;;;;;3.78;1.38;;;6.80;96.30;;;;;;5011290;28;20030;-58
2022/05/12 04:32:48;;;;;;;8.75;2.83;;;7.00;97.10;;;;;;5015631;28;20093;-59
2022/05/12 04:35:14;;;;;;;9.25;1.90;;;7.00;96.30;;;;;;5015618;28;20401;-59
2022/05/12 04:37:46;;;;;;;9.50;2.13;;;7.30;96.40;;;;;;5017275;28;20026;-58
2022/05/12 04:40:17;;;;;;;6.07;1.40;;;7.00;96.30;;;;;;5009102;28;20033;-58
2022/05/12 04:42:43;;;;;;;10.02;1.80;;;7.00;96.20;;;;;;5006811;28;20103;-59
2022/05/12 04:45:10;;;;;;;6.10;1.75;;;7.10;96.30;;;;;;4999757;28;20486;-58
2022/05/12 04:47:38;;;;;;;9.15;2.47;;;7.20;96.40;;;;;;5026051;28;20076;-59
2022/05/12 04:50:07;;;;;;;7.50;1.30;;;7.20;96.10;;;;;;5017856;28;20507;-58
2022/05/12 04:52:33;;;;;;;7.80;1.88;;;7.30;96.10;;;;;;5017381;28;20120;-58
2022/05/12 04:55:00;;;;;;;10.77;1.50;;;7.30;96.00;;;;;;5019583;28;20473;-58
2022/05/12 04:57:25;;;;;;;5.65;1.50;;;7.30;96.10;;;;;;5021353;28;20025;-58
2022/05/12 04:59:55;;;;;;;10.80;2.42;;;7.40;96.20;;;;;;5016730;28;20026;-58
2022/05/12 05:02:21;;;;;;;10.65;1.67;;;7.40;96.10;;;;;;5002200;28;20048;-57
2022/05/12 05:04:48;;;;;;;11.68;2.10;;;7.50;95.90;;;;;;5021970;28;20469;-58
2022/05/12 05:07:14;;;;;;;11.60;2.17;;;7.70;95.90;;;;;;5018210;28;20064;-58
2022/05/12 05:09:41;;;;;;;7.25;1.83;;;7.80;96.00;;;;;;5016707;28;20081;-58
2022/05/12 05:12:07;;;;;;;7.32;1.60;;;7.90;96.00;;;;;;5018063;28;20022;-58
2022/05/12 05:14:33;;;;;;;6.07;1.60;;;7.90;95.00;;;;;;5021003;28;20022;-58
2022/05/12 05:16:59;;;;;;;6.22;2.30;;;7.90;94.80;;;;;;5018484;28;20445;-59
2022/05/12 05:19:25;;;;;;;10.88;2.20;;;7.80;94.60;;;;;;5017103;28;20537;-59
2022/05/12 05:21:51;;;;;;;9.30;3.42;;;7.70;94.80;;;;;;5009684;28;20034;-59
2022/05/12 05:24:17;;;;;;;10.52;1.73;;;7.60;95.00;;;;;;5015540;28;20477;-59
2022/05/12 05:26:42;;;;;;;9.10;1.80;;;7.70;95.50;;;;;;5003018;28;20025;-59
2022/05/12 05:29:10;;;;;;;9.35;1.67;;;7.80;95.60;;;;;;5011901;28;20445;-58
2022/05/12 05:31:39;;;;;;;7.57;2.15;;;7.90;95.00;;;;;;5020008;28;20412;-59
2022/05/12 05:34:05;;;;;;;6.85;2.08;;;8.00;95.20;;;;;;5007629;28;20054;-59
2022/05/12 05:36:31;;;;;;;10.63;2.15;;;8.00;95.00;;;;;;5006147;28;20110;-59
2022/05/12 05:38:57;;;;;;;6.25;1.45;;;8.10;95.10;;;;;;5007666;28;20018;-59
2022/05/12 05:41:23;;;;;;;10.70;2.30;;;8.30;95.00;;;;;;5005803;28;20021;-59
2022/05/12 05:43:49;;;;;;;13.50;2.90;;;8.30;94.80;;;;;;5018671;28;20121;-59
2022/05/12 05:46:16;;;;;;;9.88;1.70;;;8.40;94.90;;;;;;5016727;28;20033;-59
2022/05/12 05:48:43;;;;;;;11.25;2.70;;;8.50;95.00;;;;;;5020115;28;20026;-59
2022/05/12 05:53:58;;;;;;;12.90;2.63;;;8.70;95.10;;;;;;5003065;28;20064;-58
2022/05/12 05:56:23;;;;;;;9.52;1.90;;;8.90;94.80;;;;;;4996202;28;20077;-58
2022/05/12 05:58:49;;;;;;;7.93;2.17;;;8.90;94.70;;;;;;4997782;28;20037;-58
2022/05/12 06:01:16;;;;;;;6.57;1.33;;;9.00;94.70;;;;;;4995481;28;20113;-58
2022/05/12 06:03:42;;;;;;;10.30;2.70;;;9.10;94.60;;;;;;4989271;28;20034;-59
2022/05/12 06:06:08;;;;;;;15.00;2.40;;;9.20;94.70;;;;;;4996320;28;20031;-59
2022/05/12 06:08:33;;;;;;;9.13;2.05;;;9.20;94.40;;;;;;4987956;28;20117;-59
2022/05/12 06:11:04;;;;;;;9.82;2.17;;;9.30;94.20;;;;;;4986848;28;20030;-59
2022/05/12 06:13:33;;;;;;;8.45;2.05;;;9.40;94.20;;;;;;4991386;28;20025;-58
2022/05/12 06:15:59;;;;;;;12.68;1.80;;;9.50;94.00;;;;;;4978006;28;20509;-59
2022/05/12 06:18:25;;;;;;;6.57;1.92;;;9.60;93.80;;;;;;4993387;28;20038;-59
2022/05/12 06:20:51;;;;;;;14.20;2.90;;;9.70;93.70;;;;;;4991233;28;20030;-59
2022/05/12 06:23:17;;;;;;;12.50;2.58;;;9.90;93.50;;;;;;4991746;28;20045;-59
2022/05/12 06:25:44;;;;;;;8.18;1.92;;;10.00;93.30;;;;;;5004890;28;20223;-59
2022/05/12 06:28:10;;;;;;;10.40;2.15;;;10.00;93.20;;;;;;4984196;28;20097;-59
2022/05/12 06:30:38;;;;;;;12.77;2.58;;;10.20;92.90;;;;;;5000823;28;20042;-59
2022/05/12 06:33:04;;;;;;;10.45;2.65;;;10.30;92.60;;;;;;4993568;28;20078;-59
2022/05/12 06:35:30;;;;;;;9.30;1.60;;;10.30;92.40;;;;;;5015948;28;20038;-58
2022/05/12 06:37:56;;;;;;;7.93;2.15;;;10.40;92.50;;;;;;5009278;28;20022;-59
2022/05/12 06:40:22;;;;;;;13.13;2.90;;;10.40;92.50;;;;;;5013192;28;20037;-58
2022/05/12 06:42:48;;;;;;;8.43;2.60;;;10.40;92.60;;;;;;5022300;28;20112;-58
2022/05/12 06:45:17;;;;;;;6.90;2.88;;;10.50;92.70;;;;;;5017546;28;20025;-58
2022/05/12 06:47:48;;;;;;;14.20;2.47;;;10.60;92.40;;;;;;5015518;28;20033;-58
2022/05/12 06:50:15;;;;;;;16.42;3.47;;;10.70;92.30;;;;;;5009680;28;20135;-59
2022/05/12 06:52:42;;;;;;;7.78;1.80;;;10.80;92.20;;;;;;5010675;28;20060;-59
2022/05/12 06:55:08;;;;;;;9.80;2.40;;;10.90;91.90;;;;;;5009787;28;20486;-58
2022/05/12 06:57:34;;;;;;;9.32;2.10;;;11.10;91.40;;;;;;5017756;28;20036;-58
2022/05/12 06:59:59;;;;;;;13.45;2.13;;;11.20;91.40;;;;;;5013773;28;20040;-58
2022/05/12 07:02:25;;;;;;;12.70;2.05;;;11.20;91.40;;;;;;5022996;28;20022;-59
2022/05/12 07:04:54;;;;;;;6.60;2.22;;;11.30;91.50;;;;;;5016912;28;20092;-58
2022/05/12 07:07:21;;;;;;;12.52;2.22;;;11.40;91.30;;;;;;5014798;28;20072;-58
2022/05/12 07:09:47;;;;;;;8.10;2.33;;;11.50;90.90;;;;;;5004073;28;20040;-58
2022/05/12 07:12:13;;;;;;;8.88;1.50;;;11.60;90.90;;;;;;5010308;28;20104;-60
2022/05/12 07:14:39;;;;;;;10.93;1.80;;;11.70;88.80;;;;;;5013801;28;20104;-59
2022/05/12 07:17:05;;;;;;;9.45;1.60;;;11.80;88.80;;;;;;5007085;28;20116;-59
2022/05/12 07:19:33;;;;;;;8.65;2.17;;;11.90;86.50;;;;;;5005997;28;20080;-59
2022/05/12 07:27:29;;;;;;;8.82;2.22;;;12.20;85.00;;;;;;5010569;28;20092;-58
2022/05/12 07:29:54;;;;;;;7.10;1.92;;;12.20;85.00;;;;;;5002519;28;20429;-58
2022/05/12 07:32:21;;;;;;;5.78;1.50;;;12.20;84.00;;;;;;5014252;28;20040;-59
2022/05/12 07:34:46;;;;;;;9.63;2.13;;;12.20;84.40;;;;;;5005650;28;20088;-58
2022/05/12 07:37:12;;;;;;;15.35;2.42;;;12.20;84.70;;;;;;5010590;28;20041;-58
2022/05/12 07:39:38;;;;;;;6.65;1.48;;;12.30;84.30;;;;;;5009416;28;20374;-57
2022/05/12 07:42:04;;;;;;;8.68;1.65;;;12.40;83.60;;;;;;5014084;28;20032;-57
2022/05/12 07:44:34;;;;;;;9.48;2.28;;;12.30;83.80;;;;;;5005671;28;20033;-58
2022/05/12 07:47:06;;;;;;;10.23;1.90;;;12.40;83.70;;;;;;5013853;28;20041;-58
2022/05/12 07:49:35;;;;;;;9.30;1.65;;;12.50;83.80;;;;;;5010729;28;20030;-59
2022/05/12 07:52:03;;;;;;;13.88;2.47;;;12.60;83.80;;;;;;5006808;28;20026;-57
2022/05/12 07:54:29;;;;;;;9.35;1.92;;;12.70;84.10;;;;;;5004199;28;20088;-58
2022/05/12 07:56:54;;;;;;;9.32;2.97;;;12.70;84.60;;;;;;5008846;28;20033;-58
2022/05/12 07:59:21;;;;;;;13.13;1.90;;;12.70;84.90;;;;;;5009961;28;20034;-58
2022/05/12 08:01:47;;;;;;;18.85;3.95;;;12.60;84.50;;;;;;5004987;28;20038;-58
2022/05/12 08:04:13;;;;;;;15.32;3.45;;;12.50;84.60;;;;;;5017673;28;20057;-57
2022/05/12 08:06:40;;;;;;;13.88;2.55;;;12.60;84.30;;;;;;5011083;28;20433;-58
2022/05/12 08:09:06;;;;;;;10.32;3.33;;;12.60;83.50;;;;;;5015150;28;20038;-57
2022/05/12 08:11:32;;;;;;;12.45;2.25;;;12.60;84.00;;;;;;5026287;28;20047;-58
2022/05/12 08:13:58;;;;;;;10.93;2.20;;;12.70;84.70;;;;;;5013491;28;20100;-58
2022/05/12 08:16:23;;;;;;;14.82;1.90;;;12.80;84.70;;;;;;5017378;28;20046;-57
2022/05/12 08:18:50;;;;;;;7.88;2.67;;;12.80;84.40;;;;;;5016919;28;20381;-59
2022/05/12 08:21:17;;;;;;;11.38;2.53;;;12.90;84.70;;;;;;5028253;28;20044;-56
2022/05/12 08:23:43;;;;;;;11.88;1.98;;;13.20;83.00;;;;;;5016904;28;20052;-58
2022/05/12 08:26:10;;;;;;;8.88;1.67;;;13.30;82.60;;;;;;5018446;28;20504;-58
2022/05/12 08:28:37;;;;;;;10.10;1.75;;;13.40;82.40;;;;;;5020832;28;20044;-58
2022/05/12 08:31:04;;;;;;;6.32;1.90;;;13.50;81.90;;;;;;5017842;28;20030;-58
2022/05/12 08:33:29;;;;;;;10.13;1.33;;;13.60;80.50;;;;;;5026347;28;20048;-58
2022/05/12 08:35:55;;;;;;;10.63;2.60;;;13.70;81.10;;;;;;5001649;28;20502;-58
2022/05/12 08:38:22;;;;;;;9.60;1.75;;;13.80;79.20;;;;;;5009857;28;20041;-58
2022/05/12 08:41:02;;;;;;;15.23;2.13;;;13.90;78.70;;;;;;5008781;28;20040;-57
2022/05/12 08:43:40;;;;;;;10.15;1.80;;;13.90;78.40;;;;;;5005299;28;20056;-59
2022/05/12 08:46:17;;;;;;;10.82;1.92;;;13.90;77.90;;;;;;5011200;28;20497;-58
2022/05/12 08:48:44;;;;;;;5.43;1.55;;;14.00;78.20;;;;;;5005009;28;20030;-58
2022/05/12 08:51:19;;;;;;;11.30;1.60;;;14.10;76.50;;;;;;5021718;28;20109;-57
2022/05/12 08:53:50;;;;;;;8.43;1.35;;;14.20;76.80;;;;;;5015143;28;20091;-59
2022/05/12 08:56:17;;;;;;;15.02;1.88;;;14.50;75.70;;;;;;5018092;28;20501;-57
2022/05/12 08:58:43;;;;;;;7.97;1.60;;;14.60;74.50;;;;;;5004933;28;20096;-58
2022/05/12 09:01:36;;;;;;;17.80;4.75;;;14.70;73.60;;;;;;5012804;28;20500;-57
2022/05/12 09:04:40;;;;;;;9.27;1.65;;;14.80;72.80;;;;;;5015688;28;20038;-58
2022/05/12 09:07:29;;;;;;;5.75;1.15;;;14.90;72.70;;;;;;5007026;28;20029;-57
2022/05/12 09:09:57;;;;;;;6.22;1.60;;;14.90;71.30;;;;;;5016931;28;20041;-58
2022/05/12 09:12:41;;;;;;;6.72;1.10;;;14.90;71.00;;;;;;5014997;28;20542;-58
2022/05/12 09:15:16;;;;;;;5.70;1.63;;;15.10;70.90;;;;;;5016112;28;20034;-59
2022/05/12 09:17:58;;;;;;;8.43;2.50;;;15.10;70.90;;;;;;5012467;28;20037;-59
2022/05/12 09:20:31;;;;;;;8.32;1.38;;;15.50;71.80;;;;;;5014595;28;20050;-58
2022/05/12 09:22:59;;;;;;;9.57;2.65;;;15.60;71.30;;;;;;5014867;28;20109;-59
2022/05/12 09:25:36;;;;;;;7.57;1.10;;;15.50;70.60;;;;;;5005467;28;20577;-59
2022/05/12 09:28:36;;;;;;;9.80;2.08;;;15.40;71.10;;;;;;5022586;28;20121;-58
2022/05/12 09:31:18;;;;;;;9.10;1.50;;;15.40;70.80;;;;;;5008526;28;20029;-59
2022/05/12 09:33:51;;;;;;;6.68;1.65;;;15.40;71.50;;;;;;5005602;28;20038;-60
2022/05/12 09:36:28;;;;;;;10.55;1.80;;;15.40;71.20;;;;;;5011309;28;20077;-58
2022/05/12 09:38:58;;;;;;;10.93;1.52;;;15.40;71.90;;;;;;5013097;28;20034;-59
2022/05/12 09:41:40;;;;;;;9.15;1.65;;;15.50;73.10;;;;;;5006405;28;20038;-58
2022/05/12 09:44:22;;;;;;;10.52;2.13;;;15.50;73.00;;;;;;4999260;28;20048;-59
2022/05/12 09:47:27;;;;;;;9.10;1.50;;;15.40;72.30;;;;;;5005758;28;20060;-59
2022/05/12 09:50:20;;;;;;;5.35;1.45;;;15.30;72.30;;;;;;4969398;28;20046;-58
2022/05/12 09:52:55;;;;;;;15.32;1.90;;;15.20;72.90;;;;;;4973412;28;20130;-59
2022/05/12 09:55:25;;;;;;;10.55;1.98;;;15.20;72.80;;;;;;4958598;28;20055;-59
2022/05/12 09:57:55;;;;;;;5.43;1.90;;;15.20;73.70;;;;;;4973972;28;20518;-58
2022/05/12 10:00:40;;;;;;;9.85;1.98;;;15.40;73.80;;;;;;4973035;28;20517;-59
2022/05/12 10:09:07;;;;;;;9.15;2.25;;;15.70;72.10;;;;;;4974700;28;20521;-59
2022/05/12 10:11:48;;;;;;;9.50;1.58;;;15.70;72.10;;;;;;4961117;28;20023;-59
2022/05/12 10:14:29;;;;;;;7.53;1.80;;;15.70;70.10;;;;;;4968870;28;20054;-59
2022/05/12 10:16:58;;;;;;;9.25;1.50;;;15.60;70.30;;;;;;4976640;28;20445;-59
2022/05/12 10:19:26;;;;;;;9.18;1.90;;;15.70;71.00;;;;;;4988948;22;20074;-53
2022/05/12 10:22:14;;;;;;;8.20;1.25;;;15.80;70.80;;;;;;4965887;28;20043;-55
2022/05/12 10:25:19;;;;;;;14.38;2.15;;;15.90;68.60;;;;;;4968968;28;20023;-53
2022/05/12 10:28:04;;;;;;;5.38;1.40;;;15.80;68.90;;;;;;4974624;28;20422;-55
2022/05/12 10:30:54;;;;;;;12.40;2.38;;;16.10;68.10;;;;;;4972698;28;20536;-52
2022/05/12 10:33:47;;;;;;;13.60;1.58;;;16.70;68.00;;;;;;4967695;28;20030;-53
2022/05/12 10:36:48;;;;;;;8.32;1.67;;;16.70;66.00;;;;;;4971078;28;20050;-55
2022/05/12 10:39:20;;;;;;;14.88;3.20;;;16.40;66.90;;;;;;4952875;28;20090;-51
2022/05/12 10:42:05;;;;;;;6.65;1.17;;;16.30;67.80;;;;;;4952610;28;20023;-55
2022/05/12 10:44:47;;;;;;;4.20;1.08;;;16.30;65.60;;;;;;4960200;28;20056;-53
2022/05/12 10:47:28;;;;;;;;;;;16.20;65.00;;;;;;4963947;28;20031;-54
2022/05/12 10:50:19;;;;;;;11.50;1.58;;;16.00;65.50;;;;;;4954441;28;19914;-55
2022/05/12 10:53:08;;;;;;;12.98;1.60;;;16.10;67.20;;;;;;4942959;28;20042;-53
2022/05/12 10:55:56;;;;;;;6.47;1.08;;;16.30;67.80;;;;;;4953914;28;20630;-55
2022/05/12 10:58:53;;;;;;;9.77;1.77;;;16.40;67.90;;;;;;4950923;28;20413;-54
2022/05/12 11:01:26;;;;;;;9.80;1.70;;;16.40;66.30;;;;;;4938180;28;20054;-55
2022/05/12 11:04:05;;;;;;;5.88;1.50;;;16.70;66.40;;;;;;4954677;28;20030;-54
2022/05/12 11:06:56;;;;;;;8.60;2.28;;;16.90;64.00;;;;;;4958329;28;20086;-56
2022/05/12 11:09:28;;;;;;;7.00;1.60;;;16.90;64.70;;;;;;4952074;28;20618;-56
2022/05/12 11:11:59;;;;;;;9.77;2.33;;;17.20;62.90;;;;;;4953119;28;20117;-53
2022/05/12 11:14:33;;;;;;;7.05;1.45;;;17.80;61.00;;;;;;4955850;28;20082;-52
2022/05/12 11:17:19;;;;;;;7.05;1.30;;;18.30;58.90;;;;;;4968909;28;20042;-53
2022/05/12 11:20:20;;;;;;;5.15;1.15;;;18.70;58.20;;;;;;4971715;28;20138;-56
2022/05/12 11:22:58;;;;;;;7.68;1.30;;;18.60;57.60;;;;;;4965871;28;20026;-55
2022/05/12 11:25:34;;;;;;;7.45;1.20;;;19.10;56.00;;;;;;4979380;28;20034;-55
2022/05/12 11:31:26;;;;;;;6.78;1.25;;;19.20;56.20;;;;;;4977371;28;20064;-55
2022/05/12 11:34:04;;;;;;;7.25;1.40;;;19.40;55.00;;;;;;4959510;28;20035;-58
2022/05/12 11:37:22;;;;;;;7.40;1.02;;;19.00;55.30;;;;;;4974834;28;20049;-56
2022/05/12 11:39:54;;;;;;;8.80;1.75;;;19.10;54.90;;;;;;4972000;28;20046;-56
2022/05/12 11:42:24;;;;;;;6.00;1.13;;;19.30;54.30;;;;;;4980229;28;20030;-57
2022/05/12 11:45:02;;;;;;;6.65;1.10;;;19.30;54.10;;;;;;4982953;28;20030;-57
2022/05/12 11:47:46;;;;;;;7.30;1.95;;;19.70;52.30;;;;;;4974752;28;20038;-54
2022/05/12 11:50:27;;;;;;;11.02;1.15;;;19.20;53.50;;;;;;4978155;28;20038;-57
2022/05/12 11:53:10;;;;;;;13.95;1.50;;;18.90;54.70;;;;;;4975245;28;20438;-55
2022/05/12 11:56:02;;;;;;;9.15;1.30;;;19.30;54.90;;;;;;4973262;28;20081;-56
2022/05/12 11:58:38;;;;;;;12.75;1.67;;;19.80;54.10;;;;;;4967388;28;20058;-58
2022/05/12 12:01:10;;;;;;;6.13;2.45;;;19.50;54.70;;;;;;4969467;28;20114;-55
2022/05/12 12:03:45;;;;;;;6.75;1.50;;;19.40;53.80;;;;;;4975334;28;20115;-55
2022/05/12 12:06:11;;;;;;;6.47;1.45;;;19.40;52.60;;;;;;4967004;28;20095;-55
2022/05/12 12:08:47;;;;;;;5.90;1.15;;;19.60;52.70;;;;;;4974216;28;20117;-55
2022/05/12 12:11:17;;;;;;;6.90;0.95;;;19.70;53.40;;;;;;4975122;28;20459;-55
2022/05/12 12:14:03;;;;;;;7.70;1.38;;;19.60;53.30;;;;;;4975912;28;20538;-55
2022/05/12 12:17:14;;;;;;;7.57;1.30;;;19.80;53.80;;;;;;4976951;28;20093;-55
2022/05/12 12:19:49;;;;;;;10.32;1.52;;;19.70;53.60;;;;;;4972703;28;20149;-53
2022/05/12 12:22:21;;;;;;;10.13;1.02;;;19.50;53.40;;;;;;4967968;28;20026;-54
2022/05/12 12:25:15;;;;;;;6.18;1.33;;;19.80;52.10;;;;;;4983543;28;20026;-54
2022/05/12 12:27:53;;;;;;;7.22;1.52;;;20.00;51.50;;;;;;4974515;28;20033;-52
2022/05/12 12:30:42;;;;;;;7.90;1.40;;;20.30;50.60;;;;;;4979849;28;20048;-53
2022/05/12 12:33:18;;;;;;;5.40;0.98;;;20.40;50.30;;;;;;4977669;28;20030;-53
2022/05/12 12:36:01;;;;;;;4.82;1.00;;;20.30;51.00;;;;;;4978887;28;20049;-53
2022/05/12 12:39:12;;;;;;;6.25;1.33;;;20.30;49.80;;;;;;4981266;28;20033;-54
2022/05/12 12:41:41;;;;;;;7.75;1.40;;;20.60;49.40;;;;;;4969568;28;20045;-55
2022/05/12 12:44:23;;;;;;;3.35;1.00;;;20.40;48.70;;;;;;4975331;28;20035;-54
2022/05/12 12:47:27;;;;;;;13.63;2.63;;;20.20;48.60;;;;;;4981526;28;20034;-53
2022/05/12 12:50:03;;;;;;;10.32;1.70;;;20.50;48.60;;;;;;4978024;28;20075;-55
2022/05/12 12:52:28;;;;;;;6.05;1.42;;;21.10;47.60;;;;;;4976812;28;20557;-54
2022/05/12 12:57:48;;;;;;;8.68;1.00;;;21.60;45.60;;;;;;4972096;28;20077;-53
2022/05/12 13:00:25;;;;;;;7.80;1.13;;;22.00;44.30;;;;;;4958533;28;20391;-53
2022/05/12 13:03:00;;;;;;;5.88;1.23;;;22.20;43.80;;;;;;4961610;28;20038;-54
2022/05/12 13:05:26;;;;;;;8.27;1.50;;;22.50;41.50;;;;;;4978744;28;20034;-54
2022/05/12 13:08:08;;;;;;;5.20;1.20;;;22.30;41.20;;;;;;4985175;28;20502;-55
2022/05/12 13:10:48;;;;;;;7.15;1.60;;;22.00;41.10;;;;;;4968006;28;20569;-56
2022/05/12 13:13:14;;;;;;;5.75;1.10;;;21.80;42.40;;;;;;4961674;28;20038;-55
2022/05/12 13:15:44;;;;;;;6.53;1.30;;;21.40;43.70;;;;;;4974264;28;20039;-54
2022/05/12 13:18:23;;;;;;;3.72;1.00;;;21.30;43.80;;;;;;4972309;28;20023;-55
2022/05/12 13:20:51;;;;;;;5.60;0.98;;;21.70;44.10;;;;;;4976224;28;20081;-55
2022/05/12 13:23:25;;;;;;;10.60;1.08;;;21.80;44.60;;;;;;4976613;28;20038;-56
2022/05/12 13:25:52;;;;;;;4.30;1.45;;;21.60;44.30;;;;;;4971613;28;20026;-54
2022/05/12 13:28:29;;;;;;;11.73;1.73;;;22.00;43.70;;;;;;4970877;28;20575;-55
2022/05/12 13:31:23;;;;;;;8.05;1.10;;;22.10;43.80;;;;;;4974801;28;20497;-55
2022/05/12 13:34:13;;;;;;;5.25;0.93;;;22.50;43.50;;;;;;4968028;28;20448;-55